createdAt,value
2018-08-12T00:03:03.220Z,101006.89
2018-08-12T00:08:00.793Z,101001.46
2018-08-12T00:12:58.324Z,100996.31
2018-08-12T00:17:55.825Z,100995.57
2018-08-12T00:22:53.348Z,100990.16
2018-08-12T00:27:50.877Z,100989.62
2018-08-12T00:32:48.402Z,100983.55
2018-08-12T00:37:45.940Z,100981.00
2018-08-12T00:42:43.968Z,100977.64
2018-08-12T00:47:41.523Z,100975.28
2018-08-12T00:52:39.114Z,100980.44
2018-08-12T00:57:36.742Z,100972.04
2018-08-12T01:02:34.313Z,100970.28
2018-08-12T01:07:31.797Z,100977.20
2018-08-12T01:12:29.286Z,100973.41
2018-08-12T01:17:26.824Z,100968.67
2018-08-12T01:22:24.362Z,100970.92
2018-08-12T01:27:21.891Z,100965.02
2018-08-12T01:32:19.424Z,100960.36
2018-08-12T01:37:16.964Z,100971.88
2018-08-12T01:42:14.480Z,100969.55
2018-08-12T01:47:11.982Z,100959.05
2018-08-12T01:52:09.525Z,100953.63
2018-08-12T01:57:07.048Z,100946.77
2018-08-12T02:02:04.659Z,100948.27
2018-08-12T02:07:02.265Z,100934.34
2018-08-12T02:11:59.784Z,100938.45
2018-08-12T02:16:57.257Z,100939.64
2018-08-12T02:21:54.782Z,100935.56
2018-08-12T02:26:52.318Z,100925.16
2018-08-12T02:31:49.813Z,100921.85
2018-08-12T02:36:47.304Z,100920.05
2018-08-12T02:41:44.778Z,100906.12
2018-08-12T02:46:42.361Z,100893.16
2018-08-12T02:51:39.910Z,100888.02
2018-08-12T02:56:37.485Z,100889.41
2018-08-12T03:01:35.066Z,100881.23
2018-08-12T03:06:32.572Z,100883.39
2018-08-12T03:11:30.062Z,100882.46
2018-08-12T03:16:27.558Z,100884.73
2018-08-12T03:21:25.093Z,100882.44
2018-08-12T03:26:22.594Z,100877.43
2018-08-12T03:31:20.139Z,100867.87
2018-08-12T03:36:17.650Z,100860.39
2018-08-12T03:41:15.152Z,100858.08
2018-08-12T03:46:12.670Z,100855.75
2018-08-12T03:51:10.237Z,100848.17
2018-08-12T03:56:07.762Z,100851.05
2018-08-12T04:01:06.077Z,100837.14
2018-08-12T04:06:03.640Z,100833.95
2018-08-12T04:11:01.168Z,100830.19
2018-08-12T04:15:58.735Z,100832.89
2018-08-12T04:20:56.269Z,100830.52
2018-08-12T04:25:53.808Z,100828.69
2018-08-12T04:30:51.331Z,100820.67
2018-08-12T04:35:48.827Z,100819.13
2018-08-12T04:40:46.342Z,100822.55
2018-08-12T04:45:43.833Z,100827.55
2018-08-12T04:50:41.363Z,100814.80
2018-08-12T04:55:38.838Z,100815.73
2018-08-12T05:00:36.486Z,100816.61
2018-08-12T05:05:34.015Z,100814.56
2018-08-12T05:10:31.516Z,100800.00
2018-08-12T05:15:29.101Z,100795.34
2018-08-12T05:20:26.638Z,100791.78
2018-08-12T05:25:24.242Z,100779.69
2018-08-12T05:30:21.761Z,100779.17
2018-08-12T05:35:19.286Z,100772.05
2018-08-12T05:40:16.791Z,100763.52
2018-08-12T05:45:14.336Z,100755.59
2018-08-12T05:50:11.904Z,100751.56
2018-08-12T05:55:09.475Z,100753.91
2018-08-12T06:00:09.738Z,100754.16
2018-08-12T06:05:07.558Z,100745.30
2018-08-12T06:10:05.642Z,100738.77
2018-08-12T06:15:03.858Z,100733.20
2018-08-12T06:20:02.431Z,100737.40
2018-08-12T06:24:59.941Z,100742.90
2018-08-12T06:29:57.497Z,100743.66
2018-08-12T06:34:54.982Z,100733.20
2018-08-12T06:39:52.588Z,100723.39
2018-08-12T06:44:50.119Z,100728.19
2018-08-12T06:49:48.654Z,100718.87
2018-08-12T06:54:46.181Z,100725.42
2018-08-12T06:59:43.714Z,100721.87
2018-08-12T07:04:41.373Z,100719.01
2018-08-12T07:09:38.912Z,100719.05
2018-08-12T07:14:36.449Z,100714.19
2018-08-12T07:19:39.139Z,100707.73
2018-08-12T07:24:36.692Z,100701.91
2018-08-12T07:29:34.248Z,100698.58
2018-08-12T07:34:31.790Z,100688.61
2018-08-12T07:39:29.349Z,100690.11
2018-08-12T07:44:26.851Z,100694.09
2018-08-12T07:49:31.920Z,100684.46
2018-08-12T07:54:29.527Z,100684.37
2018-08-12T07:59:27.016Z,100688.47
2018-08-12T08:04:24.558Z,100681.58
2018-08-12T08:09:22.111Z,100676.86
2018-08-12T08:14:19.629Z,100675.05
2018-08-12T08:19:25.856Z,100663.02
2018-08-12T08:24:23.428Z,100665.95
2018-08-12T08:29:20.954Z,100669.19
2018-08-12T08:34:18.501Z,100657.16
2018-08-12T08:39:16.011Z,100655.77
2018-08-12T08:44:13.596Z,100656.90
2018-08-12T08:49:11.129Z,100649.61
2018-08-12T08:54:08.669Z,100645.20
2018-08-12T08:59:06.210Z,100639.06
2018-08-12T09:04:03.929Z,100621.17
2018-08-12T09:09:01.671Z,100624.08
2018-08-12T09:13:58.998Z,100614.28
2018-08-12T09:18:56.530Z,100611.16
2018-08-12T09:23:54.080Z,100605.94
2018-08-12T09:28:51.582Z,100600.06
2018-08-12T09:33:49.069Z,100591.05
2018-08-12T09:38:46.587Z,100585.79
2018-08-12T09:43:44.155Z,100583.38
2018-08-12T09:48:41.691Z,100575.52
2018-08-12T09:53:39.205Z,100566.87
2018-08-12T09:58:36.869Z,100561.00
2018-08-12T10:03:34.458Z,100554.12
2018-08-12T10:08:31.962Z,100548.28
2018-08-12T10:13:30.036Z,100540.38
2018-08-12T10:18:27.614Z,100533.41
2018-08-12T10:23:25.270Z,100527.44
2018-08-12T10:28:25.034Z,100521.09
2018-08-12T10:33:22.691Z,100513.86
2018-08-12T10:38:20.327Z,100506.52
2018-08-12T10:43:17.852Z,100500.53
2018-08-12T10:48:15.620Z,100497.92
2018-08-12T10:53:13.485Z,100489.02
2018-08-12T10:58:11.135Z,100493.98
2018-08-12T11:03:08.758Z,100474.77
2018-08-12T11:08:06.655Z,100476.73
2018-08-12T11:13:04.304Z,100465.20
2018-08-12T11:18:01.931Z,100473.90
2018-08-12T11:22:59.535Z,100460.64
2018-08-12T11:27:57.170Z,100457.91
2018-08-12T11:32:54.795Z,100451.94
2018-08-12T11:37:52.399Z,100456.50
2018-08-12T11:42:49.961Z,100452.16
2018-08-12T11:47:48.364Z,100444.92
2018-08-12T11:52:46.401Z,100437.84
2018-08-12T11:57:44.024Z,100438.13
2018-08-12T12:02:41.673Z,100420.60
2018-08-12T12:07:39.878Z,100410.00
2018-08-12T12:12:37.706Z,100399.73
2018-08-12T12:17:35.449Z,100391.14
2018-08-12T12:22:32.962Z,100383.73
2018-08-12T12:27:30.577Z,100390.06
2018-08-12T12:32:28.499Z,100376.13
2018-08-12T12:37:26.034Z,100364.46
2018-08-12T12:42:23.574Z,100363.75
2018-08-12T12:47:21.183Z,100365.61
2018-08-12T12:52:18.905Z,100350.64
2018-08-12T12:57:16.440Z,100339.60
2018-08-12T13:02:14.035Z,100336.05
2018-08-12T13:07:11.558Z,100328.46
2018-08-12T13:12:09.111Z,100326.38
2018-08-12T13:17:06.639Z,100323.25
2018-08-12T13:22:04.222Z,100310.20
2018-08-12T13:27:01.771Z,100309.17
2018-08-12T13:31:59.347Z,100303.55
2018-08-12T13:36:56.959Z,100301.13
2018-08-12T13:41:54.478Z,100288.84
2018-08-12T13:46:52.037Z,100280.22
2018-08-12T13:51:49.606Z,100268.95
2018-08-12T13:56:47.133Z,100268.88
2018-08-12T14:01:44.780Z,100257.61
2018-08-12T14:06:42.281Z,100248.00
2018-08-12T14:11:39.798Z,100245.20
2018-08-12T14:16:37.367Z,100233.51
2018-08-12T14:21:35.577Z,100220.27
2018-08-12T14:26:33.205Z,100224.23
2018-08-12T14:31:30.759Z,100214.44
2018-08-12T14:36:28.289Z,100198.86
2018-08-12T14:41:25.871Z,100196.47
2018-08-12T14:46:23.398Z,100187.41
2018-08-12T14:51:20.966Z,100173.33
2018-08-12T14:56:18.519Z,100175.73
2018-08-12T15:01:16.152Z,100173.97
2018-08-12T15:06:13.749Z,100165.28
2018-08-12T15:11:11.272Z,100151.84
2018-08-12T15:16:08.886Z,100147.62
2018-08-12T15:21:06.613Z,100146.16
2018-08-12T15:26:04.214Z,100138.54
2018-08-12T15:31:01.768Z,100130.01
2018-08-12T15:35:59.286Z,100132.33
2018-08-12T15:40:57.204Z,100125.89
2018-08-12T15:45:54.754Z,100123.83
2018-08-12T15:50:52.612Z,100110.63
2018-08-12T15:55:50.121Z,100098.41
2018-08-12T16:00:47.677Z,100092.11
2018-08-12T16:05:45.298Z,100085.63
2018-08-12T16:10:43.011Z,100084.75
2018-08-12T16:15:40.646Z,100093.04
2018-08-12T16:20:38.190Z,100083.73
2018-08-12T16:25:35.748Z,100080.96
2018-08-12T16:30:33.381Z,100076.30
2018-08-12T16:35:31.018Z,100070.30
2018-08-12T16:40:28.575Z,100059.95
2018-08-12T16:45:26.126Z,100058.56
2018-08-12T16:50:23.709Z,100052.12
2018-08-12T16:55:21.245Z,100040.80
2018-08-12T17:00:20.357Z,100032.34
2018-08-12T17:05:20.132Z,100027.14
2018-08-12T17:10:18.278Z,100026.70
2018-08-12T17:15:18.890Z,100029.86
2018-08-12T17:20:18.744Z,100021.62
2018-08-12T17:25:16.323Z,100020.46
2018-08-12T17:30:15.048Z,100016.13
2018-08-12T17:35:14.644Z,100005.14
2018-08-12T17:40:13.363Z,100006.29
2018-08-12T17:45:12.039Z,99999.02
2018-08-12T17:50:12.358Z,99998.45
2018-08-12T17:55:09.928Z,99993.27
2018-08-12T18:00:09.579Z,99989.05
2018-08-12T18:05:07.603Z,99991.77
2018-08-12T18:10:05.501Z,99993.48
2018-08-12T18:15:03.347Z,100002.20
2018-08-12T18:20:01.947Z,99989.80
2018-08-12T18:24:59.484Z,99987.20
2018-08-12T18:29:57.047Z,99981.98
2018-08-12T18:34:54.590Z,99987.69
2018-08-12T18:39:52.122Z,99984.31
2018-08-12T18:44:49.652Z,99985.34
2018-08-12T18:49:48.166Z,99983.03
2018-08-12T18:54:45.693Z,99987.13
2018-08-12T18:59:43.252Z,99982.20
2018-08-12T19:04:40.963Z,99977.85
2018-08-12T19:09:38.483Z,99981.75
2018-08-12T19:14:35.992Z,99981.41
2018-08-12T19:19:40.658Z,99981.58
2018-08-12T19:24:38.242Z,99980.88
2018-08-12T19:29:35.749Z,99981.16
2018-08-12T19:34:33.278Z,99985.00
2018-08-12T19:39:30.786Z,99990.19
2018-08-12T19:44:28.308Z,99983.89
2018-08-12T19:49:35.753Z,99985.81
2018-08-12T19:54:33.287Z,99979.20
2018-08-12T19:59:30.782Z,99980.06
2018-08-12T20:04:28.381Z,99981.66
2018-08-12T20:09:25.871Z,99975.78
2018-08-12T20:14:23.400Z,99973.08
2018-08-12T20:24:29.031Z,99972.86
2018-08-12T20:29:26.542Z,99968.59
2018-08-12T20:34:24.045Z,99970.14
2018-08-12T20:39:21.628Z,99966.09
2018-08-12T20:44:19.163Z,99965.56
2018-08-12T20:49:21.738Z,99961.80
2018-08-12T20:54:19.430Z,99950.86
2018-08-12T20:59:16.911Z,99951.88
2018-08-12T21:04:14.528Z,99951.03
2018-08-12T21:09:12.022Z,99948.34
2018-08-12T21:14:09.567Z,99944.84
2018-08-12T21:19:09.456Z,99941.27
2018-08-12T21:24:07.006Z,99936.12
2018-08-12T21:29:04.761Z,99933.16
2018-08-12T21:34:02.260Z,99928.12
2018-08-12T21:38:59.815Z,99930.67
2018-08-12T21:43:57.301Z,99927.92
2018-08-12T21:48:54.794Z,99923.66
2018-08-12T21:53:52.282Z,99916.65
2018-08-12T21:58:49.809Z,99920.19
2018-08-12T22:03:47.363Z,99917.83
2018-08-12T22:08:44.935Z,99907.86
2018-08-12T22:13:42.413Z,99911.62
2018-08-12T22:18:39.909Z,99909.08
2018-08-12T22:23:37.434Z,99900.09
2018-08-12T22:28:34.924Z,99899.77
2018-08-12T22:33:32.405Z,99900.05
2018-08-12T22:38:30.749Z,99898.62
2018-08-12T22:43:28.435Z,99897.20
2018-08-12T22:48:25.947Z,99887.16
2018-08-12T22:53:23.447Z,99891.54
2018-08-12T22:58:21.095Z,99884.96
2018-08-12T23:03:18.640Z,99882.36
2018-08-12T23:08:16.116Z,99879.70
2018-08-12T23:13:13.593Z,99875.48
2018-08-12T23:18:11.085Z,99878.30
2018-08-12T23:23:08.577Z,99873.50
2018-08-12T23:28:06.054Z,99869.68
2018-08-12T23:33:03.626Z,99866.09
2018-08-12T23:38:01.122Z,99854.97
2018-08-12T23:42:58.608Z,99845.69
2018-08-12T23:47:56.075Z,99840.33
2018-08-12T23:52:53.559Z,99830.12
2018-08-12T23:57:51.037Z,99829.96
